Ocean Stellar — S6EP2 — position and weather

sailwx.info

Track history (hours):
 
Tides and Currents Weather Stations Pressure Air Temp Water Temp Dewpoint Dewpoint Depression Visibility Wind Speed Wind Dir Waves Ship Positions

Ocean Stellar

Last reported at 2018-Apr-24 13:59 UTC. Time now 2018-Apr-24 14:34 UTC.
Position N 01°10' E 103°43'.

Length 189 m; draft 13.1 m.

Type: Tanker. MMSI: 563476000.

Date/timePositionNaut miles runAvg speedWind from/ knotsBaromVisibWave heightAir tempDewpointWater temp
2018-Apr-24 13:59N 01°10' E 103°43'0 0.1
2018-Apr-24 13:30N 01°10' E 103°43'0 0.0
2018-Apr-24 12:55N 01°10' E 103°43'0 0.1
2018-Apr-24 12:30N 01°10' E 103°43'0 0.0
2018-Apr-24 11:58N 01°10' E 103°43'0 0.1
2018-Apr-24 11:30N 01°10' E 103°43'0 0.1
2018-Apr-24 10:59N 01°10' E 103°43'0 0.0
2018-Apr-24 10:31N 01°10' E 103°43'0 0.0
2018-Apr-24 09:58N 01°10' E 103°43'0 0.0
2018-Apr-24 09:31N 01°10' E 103°43'0 0.1
2018-Apr-24 08:58N 01°10' E 103°43'0 0.1
2018-Apr-24 08:30N 01°10' E 103°43'0 0.1
2018-Apr-24 07:59N 01°10' E 103°43'0 0.0
2018-Apr-24 07:31N 01°10' E 103°43'0 0.0
2018-Apr-24 06:54N 01°10' E 103°43'0 0.0
2018-Apr-24 06:30N 01°10' E 103°43'0 0.1
2018-Apr-24 06:00N 01°10' E 103°43'0 0.1
2018-Apr-24 05:30N 01°10' E 103°43'0 0.0
2018-Apr-24 04:59N 01°10' E 103°43'0 0.0
2018-Apr-24 04:30N 01°10' E 103°43'0 0.0
2018-Apr-24 03:59N 01°10' E 103°43'0 0.0
2018-Apr-24 03:30N 01°10' E 103°43'0 0.0
2018-Apr-24 02:59N 01°10' E 103°43'0 0.0
2018-Apr-24 02:30N 01°10' E 103°43'0 0.0
2018-Apr-24 01:59N 01°10' E 103°43'0 0.0
2018-Apr-24 01:30N 01°10' E 103°43'0 0.0
2018-Apr-24 00:59N 01°10' E 103°43'0 0.0
2018-Apr-24 00:26N 01°10' E 103°43'0 0.0
2018-Apr-23 23:59N 01°10' E 103°43'0 0.0
2018-Apr-23 23:30N 01°10' E 103°43'0 0.0
2018-Apr-23 22:59N 01°10' E 103°43'0 0.0
2018-Apr-23 22:29N 01°10' E 103°43'0 0.1
2018-Apr-23 21:59N 01°10' E 103°43'0 0.1
2018-Apr-23 21:27N 01°10' E 103°43'0 0.1
2018-Apr-23 20:58N 01°10' E 103°43'0 0.0
2018-Apr-23 20:30N 01°10' E 103°43'0 0.2
2018-Apr-23 19:59N 01°10' E 103°43'0 0.1
2018-Apr-23 19:30N 01°10' E 103°43'0 0.1
2018-Apr-23 18:59N 01°10' E 103°43'0 0.3
2018-Apr-23 18:30N 01°10' E 103°43'0 0.2
2018-Apr-23 17:59N 01°10' E 103°43'0 0.3
2018-Apr-23 17:30N 01°10' E 103°43'0 0.3
2018-Apr-23 17:00N 01°10' E 103°43'4 7.4
2018-Apr-23 16:30N 01°11' E 103°40'4 8.2
2018-Apr-23 15:59N 01°13' E 103°36'2 3.1
2018-Apr-23 15:30N 01°13' E 103°35'2 3.0
2018-Apr-23 14:59N 01°14' E 103°34'1 2.2
2018-Apr-23 14:25N 01°15' E 103°36'0 0.1
2018-Apr-23 13:51N 01°15' E 103°35'0 0.2
2018-Apr-23 13:30N 01°15' E 103°35'0 0.1
2018-Apr-23 12:55N 01°15' E 103°35'0 0.1
2018-Apr-23 12:19N 01°15' E 103°35'0 0.1
2018-Apr-23 11:45N 01°15' E 103°35'0 0.1
2018-Apr-23 11:16N 01°15' E 103°35'0 0.1
2018-Apr-23 10:45N 01°15' E 103°35'0 0.1
2018-Apr-23 10:18N 01°15' E 103°36'0 0.0
2018-Apr-23 09:54N 01°15' E 103°36'0 0.0
2018-Apr-23 09:15N 01°15' E 103°36'0 0.0
2018-Apr-23 08:48N 01°15' E 103°36'0 0.0
2018-Apr-23 08:30N 01°15' E 103°36'0 0.0
2018-Apr-23 07:48N 01°15' E 103°36'0 0.3
2018-Apr-23 07:03N 01°15' E 103°36'0 0.2
2018-Apr-23 06:57N 01°15' E 103°36'0 0.0
2018-Apr-23 06:06N 01°15' E 103°36'0 0.0
2018-Apr-23 05:57N 01°15' E 103°36'0 0.1
2018-Apr-23 05:21N 01°15' E 103°36'0 0.1
2018-Apr-23 04:57N 01°15' E 103°36'0 0.2
2018-Apr-23 04:30N 01°15' E 103°36'0 0.0
2018-Apr-23 03:59N 01°15' E 103°36'0 0.0
2018-Apr-23 03:26N 01°15' E 103°36'0 0.0
2018-Apr-23 02:54N 01°15' E 103°36'0 0.0
2018-Apr-23 02:27N 01°15' E 103°36'0 0.0
2018-Apr-23 01:51N 01°15' E 103°36'0 0.0
2018-Apr-22 22:41N 01°15' E 103°36'0 0.0
2018-Apr-22 22:11N 01°15' E 103°36'0 0.0
2018-Apr-22 21:53N 01°15' E 103°36'0 0.1
2018-Apr-22 21:23N 01°15' E 103°36'0 0.0
2018-Apr-22 20:53N 01°15' E 103°36'0 0.1
2018-Apr-22 20:08N 01°14' E 103°36'0 1.4
2018-Apr-22 19:58N 01°14' E 103°36'2 4.2
2018-Apr-22 19:30N 01°13' E 103°37'3 5.4
2018-Apr-22 18:59N 01°12' E 103°39'3 5.9
2018-Apr-22 18:30N 01°14' E 103°42'0 0.7
2018-Apr-22 17:59N 01°15' E 103°41'0 0.0
2018-Apr-22 17:29N 01°15' E 103°41'0 0.0
2018-Apr-22 16:59N 01°14' E 103°41'0 0.0
2018-Apr-22 16:23N 01°15' E 103°41'0 0.0
2018-Apr-22 15:59N 01°15' E 103°41'0 0.0
2018-Apr-22 15:26N 01°15' E 103°41'0 0.0
2018-Apr-22 14:59N 01°15' E 103°41'0 0.0
2018-Apr-22 14:23N 01°15' E 103°41'0 0.0
2018-Apr-22 13:59N 01°15' E 103°41'0 0.0
2018-Apr-22 13:29N 01°15' E 103°41'0 0.0
2018-Apr-22 12:59N 01°15' E 103°41'0 0.0
2018-Apr-22 12:29N 01°15' E 103°41'0 0.0
2018-Apr-22 11:59N 01°15' E 103°41'0 0.0
2018-Apr-22 11:26N 01°14' E 103°41'0 0.0
2018-Apr-22 10:59N 01°15' E 103°41'0 0.0
2018-Apr-22 10:24N 01°15' E 103°41'0 0.0
2018-Apr-22 09:59N 01°15' E 103°41'0 0.0
2018-Apr-22 09:26N 01°15' E 103°41'0 0.0
2018-Apr-22 08:53N 01°15' E 103°41'0 0.0
2018-Apr-22 08:29N 01°14' E 103°41'0 0.0
2018-Apr-22 07:59N 01°15' E 103°41'0 0.0
2018-Apr-22 07:30N 01°15' E 103°41'0 0.0
2018-Apr-22 06:59N 01°15' E 103°41'0 0.0
2018-Apr-22 06:29N 01°15' E 103°41'0 0.0
2018-Apr-22 05:59N 01°15' E 103°41'0 0.0
2018-Apr-22 05:27N 01°15' E 103°41'0 0.0
2018-Apr-22 04:56N 01°15' E 103°41'0 0.0
2018-Apr-22 04:29N 01°15' E 103°41'0 0.0
2018-Apr-22 03:59N 01°15' E 103°41'0 0.0
2018-Apr-22 03:29N 01°15' E 103°41'0 0.0
2018-Apr-22 02:53N 01°15' E 103°41'0 0.0
2018-Apr-22 02:23N 01°15' E 103°41'0 0.0
2018-Apr-22 01:57N 01°15' E 103°41'0 0.0
2018-Apr-22 01:29N 01°15' E 103°41'0 0.0
2018-Apr-22 00:59N 01°15' E 103°41'0 0.0
2018-Apr-22 00:30N 01°15' E 103°41'0 0.0
2018-Apr-21 23:56N 01°15' E 103°41'0 0.0
2018-Apr-21 23:29N 01°15' E 103°41'0 0.0
2018-Apr-21 22:59N 01°15' E 103°41'0 0.0
2018-Apr-21 22:29N 01°15' E 103°41'0 0.0
2018-Apr-21 21:50N 01°15' E 103°41'0 0.0
2018-Apr-21 21:30N 01°15' E 103°41'0 0.0
2018-Apr-21 20:59N 01°15' E 103°41'0 0.0
2018-Apr-21 20:26N 01°15' E 103°41'0 0.0
2018-Apr-21 19:59N 01°15' E 103°41'0 0.0
2018-Apr-21 19:29N 01°15' E 103°41'0 0.0
2018-Apr-21 18:59N 01°15' E 103°41'0 0.3
2018-Apr-21 18:31N 01°15' E 103°42'1 1.5
2018-Apr-21 17:59N 01°15' E 103°42'2 5.0
2018-Apr-21 17:30N 01°16' E 103°44'3 5.4
2018-Apr-21 16:59N 01°14' E 103°47'1 2.4
2018-Apr-21 16:27N 01°14' E 103°48'0 0.2
2018-Apr-21 15:54N 01°14' E 103°48'0 0.1
2018-Apr-21 14:55N 01°14' E 103°48'0 0.3
2018-Apr-21 14:24N 01°14' E 103°48'0 0.2
2018-Apr-21 13:42N 01°14' E 103°48'0 0.5
2018-Apr-21 13:21N 01°14' E 103°48'0 0.3
2018-Apr-21 12:57N 01°14' E 103°48'0 0.0
2018-Apr-21 12:30N 01°14' E 103°48'0 0.0
2018-Apr-21 11:45N 01°14' E 103°48'0 0.2
2018-Apr-21 11:21N 01°14' E 103°48'0 0.0
2018-Apr-21 10:51N 01°14' E 103°48'0 0.1
2018-Apr-21 10:30N 01°14' E 103°48'0 0.1
2018-Apr-21 09:51N 01°14' E 103°48'0 0.0
2018-Apr-21 09:30N 01°14' E 103°48'0 0.1
2018-Apr-21 08:51N 01°14' E 103°48'0 0.1
2018-Apr-21 08:15N 01°14' E 103°48'0 0.0
2018-Apr-21 07:57N 01°14' E 103°48'0 0.0
2018-Apr-21 07:27N 01°14' E 103°48'0 0.0
2018-Apr-21 06:30N 01°14' E 103°48'0 0.0
2018-Apr-21 05:58N 01°14' E 103°48'0 0.1
2018-Apr-21 05:27N 01°14' E 103°48'0 0.0
2018-Apr-21 04:57N 01°14' E 103°48'0 0.0
2018-Apr-21 04:30N 01°14' E 103°48'0 0.2
2018-Apr-21 03:57N 01°13' E 103°48'0 0.1
2018-Apr-21 03:30N 01°13' E 103°48'0 0.1
2018-Apr-21 02:57N 01°14' E 103°48'0 0.0
2018-Apr-21 02:30N 01°14' E 103°48'0 0.0
2018-Apr-21 01:57N 01°14' E 103°48'0 0.0
2018-Apr-21 01:27N 01°14' E 103°48'0 0.0
2018-Apr-21 01:00N 01°14' E 103°48'0 0.1
2018-Apr-21 00:27N 01°13' E 103°48'0 0.0
2018-Apr-20 23:33N 01°14' E 103°48'0 0.1
2018-Apr-20 23:27N 01°14' E 103°48'0 0.0
2018-Apr-20 22:57N 01°14' E 103°48'0 0.0
2018-Apr-20 22:24N 01°14' E 103°48'0 0.0
2018-Apr-20 21:54N 01°14' E 103°48'0 0.0
2018-Apr-20 21:27N 01°14' E 103°48'0 0.1
2018-Apr-20 21:00N 01°13' E 103°48'0 0.2
2018-Apr-20 20:21N 01°14' E 103°48'0 0.2
2018-Apr-20 19:57N 01°14' E 103°48'0 0.1
2018-Apr-20 19:15N 01°14' E 103°48'0 0.2
2018-Apr-20 18:56N 01°14' E 103°48'0 0.1
2018-Apr-20 18:29N 01°14' E 103°48'0 0.1
2018-Apr-20 17:59N 01°14' E 103°48'0 0.1
2018-Apr-20 17:26N 01°14' E 103°48'0 0.1
2018-Apr-20 16:59N 01°14' E 103°48'0 0.0
2018-Apr-20 16:26N 01°14' E 103°48'0 0.2
2018-Apr-20 15:59N 01°14' E 103°48'0 0.1
2018-Apr-20 15:23N 01°14' E 103°48'0 0.1
2018-Apr-20 14:47N 01°14' E 103°48'0 0.1
2018-Apr-20 14:29N 01°14' E 103°48'0 0.0
2018-Apr-20 13:53N 01°14' E 103°48'0 0.0
2018-Apr-20 13:29N 01°14' E 103°48'0 0.1
2018-Apr-20 12:56N 01°14' E 103°48'0 0.1
2018-Apr-20 12:26N 01°14' E 103°48'0 0.0
2018-Apr-20 11:59N 01°14' E 103°48'0 0.0
2018-Apr-20 11:26N 01°14' E 103°48'0 0.1
2018-Apr-20 10:59N 01°14' E 103°48'0 0.0
2018-Apr-20 10:29N 01°14' E 103°48'0 0.1
2018-Apr-20 09:53N 01°14' E 103°48'0 0.0
2018-Apr-20 09:23N 01°14' E 103°48'0 0.1
2018-Apr-20 08:47N 01°14' E 103°48'0 0.0
2018-Apr-20 08:23N 01°14' E 103°48'0 0.1
2018-Apr-20 07:53N 01°14' E 103°48'0 0.1
2018-Apr-20 07:23N 01°14' E 103°48'0 0.0
2018-Apr-20 06:56N 01°14' E 103°48'0 0.0
2018-Apr-20 06:14N 01°14' E 103°48'0 0.0
2018-Apr-20 05:56N 01°14' E 103°48'0 0.1
2018-Apr-20 05:11N 01°14' E 103°48'0 0.1
2018-Apr-20 04:59N 01°14' E 103°48'0 0.0
2018-Apr-20 04:26N 01°14' E 103°48'0 0.0
2018-Apr-20 03:59N 01°14' E 103°48'0 0.0
2018-Apr-20 03:29N 01°14' E 103°48'0 0.2
2018-Apr-20 02:44N 01°13' E 103°48'0 0.2
2018-Apr-20 02:26N 01°13' E 103°48'0 0.0
2018-Apr-20 01:32N 01°13' E 103°48'0 0.2
2018-Apr-20 01:26N 01°13' E 103°48'0 0.2
2018-Apr-20 00:59N 01°14' E 103°48'0 0.0
2018-Apr-20 00:29N 01°14' E 103°48'0 0.1
2018-Apr-19 23:56N 01°14' E 103°48'0 0.1
2018-Apr-19 23:26N 01°14' E 103°48'0 0.0
2018-Apr-19 21:44N 01°14' E 103°48'0 0.0
2018-Apr-19 21:20N 01°14' E 103°48'0 0.0
2018-Apr-19 20:59N 01°14' E 103°48'0 0.0
2018-Apr-19 20:29N 01°14' E 103°48'0 0.1
2018-Apr-19 19:59N 01°13' E 103°48'0 0.1
2018-Apr-19 19:26N 01°14' E 103°48'0 0.2
2018-Apr-19 18:59N 01°14' E 103°48'0 0.0
2018-Apr-19 18:26N 01°14' E 103°48'0 0.1
2018-Apr-19 17:23N 01°14' E 103°48'0 0.0
2018-Apr-19 16:59N 01°14' E 103°48'0 0.1
2018-Apr-19 16:29N 01°14' E 103°48'0 0.3
2018-Apr-19 15:56N 01°14' E 103°48'0 0.1
2018-Apr-19 15:29N 01°14' E 103°48'0 0.1
2018-Apr-19 14:56N 01°14' E 103°48'0 0.1
2018-Apr-19 14:23N 01°14' E 103°48'0 0.2
2018-Apr-19 13:59N 01°14' E 103°48'0 0.0
2018-Apr-19 13:17N 01°14' E 103°48'0 0.0
2018-Apr-19 12:44N 01°14' E 103°48'0 0.1
2018-Apr-19 12:29N 01°14' E 103°48'0 0.1
2018-Apr-19 11:53N 01°14' E 103°48'0 0.0
2018-Apr-19 11:26N 01°14' E 103°48'0 0.0
2018-Apr-19 10:56N 01°14' E 103°48'0 0.1
2018-Apr-19 10:29N 01°14' E 103°48'0 0.1
2018-Apr-19 09:29N 01°14' E 103°48'0 0.1
2018-Apr-19 08:58N 01°14' E 103°48'0 0.1
2018-Apr-19 08:25N 01°14' E 103°48'0 0.1
2018-Apr-19 07:55N 01°14' E 103°48'0 0.3
2018-Apr-19 07:20N 01°13' E 103°48'0 0.3
2018-Apr-19 06:52N 01°14' E 103°48'0 0.0
2018-Apr-19 06:19N 01°14' E 103°48'0 0.0
2018-Apr-19 05:58N 01°14' E 103°48'0 0.0
2018-Apr-19 05:25N 01°14' E 103°48'0 0.0
2018-Apr-19 04:58N 01°14' E 103°48'0 0.0
2018-Apr-19 04:28N 01°14' E 103°48'0 0.1
2018-Apr-19 03:58N 01°14' E 103°48'0 0.1
2018-Apr-19 03:13N 01°14' E 103°48'0 0.0
2018-Apr-19 02:59N 01°14' E 103°48'0 0.0
2018-Apr-19 02:28N 01°14' E 103°48'0 0.2
2018-Apr-19 01:40N 01°13' E 103°48'0 0.1
2018-Apr-19 01:22N 01°13' E 103°48'0 0.2
2018-Apr-19 00:58N 01°14' E 103°48'0 0.0
2018-Apr-19 00:25N 01°14' E 103°48'0 0.0
2018-Apr-18 23:58N 01°14' E 103°48'0 0.0
2018-Apr-18 23:28N 01°14' E 103°48'0 0.0
2018-Apr-18 22:16N 01°14' E 103°48'0 0.0
2018-Apr-18 21:58N 01°14' E 103°48'0 0.0
2018-Apr-18 21:16N 01°14' E 103°48'0 0.0
2018-Apr-18 20:58N 01°14' E 103°48'0 0.0
2018-Apr-18 20:22N 01°14' E 103°48'0 0.0
2018-Apr-18 19:58N 01°14' E 103°48'0 0.0
2018-Apr-18 19:28N 01°14' E 103°48'0 0.1
2018-Apr-18 18:52N 01°14' E 103°48'0 0.1
2018-Apr-18 18:25N 01°14' E 103°48'0 0.1
2018-Apr-18 17:40N 01°14' E 103°48'0 0.1
2018-Apr-18 17:07N 01°14' E 103°48'0 0.0
2018-Apr-18 16:59N 01°14' E 103°48'0 0.1
2018-Apr-18 16:28N 01°14' E 103°48'0 0.0
2018-Apr-18 15:58N 01°14' E 103°48'0 0.1
2018-Apr-18 15:22N 01°14' E 103°48'0 0.0
2018-Apr-18 14:58N 01°14' E 103°48'0 0.1
2018-Apr-18 14:28N 01°14' E 103°48'0 0.0
2018-Apr-18 13:58N 01°14' E 103°48'0 0.1
2018-Apr-18 13:22N 01°14' E 103°48'0 0.1
2018-Apr-18 12:55N 01°14' E 103°48'0 0.1
2018-Apr-18 12:26N 01°14' E 103°48'0 0.1
2018-Apr-18 11:37N 01°14' E 103°48'0 0.1
2018-Apr-18 11:28N 01°14' E 103°48'0 0.0
2018-Apr-18 10:49N 01°14' E 103°48'0 0.0
2018-Apr-18 10:28N 01°14' E 103°48'0 0.0
2018-Apr-18 09:56N 01°14' E 103°48'0 0.0
2018-Apr-18 09:28N 01°14' E 103°48'0 0.0
2018-Apr-18 08:58N 01°14' E 103°48'0 0.1
2018-Apr-18 08:28N 01°14' E 103°48'0 0.1
2018-Apr-18 07:58N 01°14' E 103°48'0 0.1
2018-Apr-18 07:10N 01°14' E 103°48'0 0.0
2018-Apr-18 06:46N 01°14' E 103°48'0 0.2
2018-Apr-18 06:19N 01°14' E 103°48'0 0.1
2018-Apr-18 05:58N 01°14' E 103°48'0 0.2
2018-Apr-18 05:25N 01°14' E 103°48'0 0.3
2018-Apr-18 04:58N 01°14' E 103°48'0 0.0
2018-Apr-18 04:28N 01°14' E 103°48'0 0.0
2018-Apr-18 03:58N 01°14' E 103°48'0 0.1
2018-Apr-18 03:19N 01°14' E 103°48'0 0.1
2018-Apr-18 02:46N 01°14' E 103°48'0 0.1
2018-Apr-18 02:17N 01°14' E 103°48'0 1.3
2018-Apr-18 02:00N 01°14' E 103°47'2 4.7
2018-Apr-18 01:31N 01°15' E 103°45'4 8.1
2018-Apr-18 01:00N 01°13' E 103°42'4 8.6
2018-Apr-18 00:30N 01°12' E 103°37'3 5.5
2018-Apr-17 23:59N 01°13' E 103°35'2 4.8
2018-Apr-17 23:31N 01°15' E 103°35'1 0.2
2018-Apr-17 19:50N 01°15' E 103°36'0 0.0
2018-Apr-17 19:05N 01°15' E 103°36'0 0.0
2018-Apr-17 18:59N 01°15' E 103°36'0 0.0
2018-Apr-17 18:29N 01°15' E 103°36'0 0.0
2018-Apr-17 17:59N 01°15' E 103°36'0 0.0
2018-Apr-17 17:23N 01°15' E 103°36'0 0.0
2018-Apr-17 15:32N 01°15' E 103°36'0 0.0
2018-Apr-17 15:20N 01°15' E 103°36'0 0.1
2018-Apr-17 12:56N 01°15' E 103°36'0 0.0
2018-Apr-17 12:23N 01°15' E 103°36'0 0.1
2018-Apr-17 10:32N 01°15' E 103°36'0 0.0
2018-Apr-17 10:14N 01°15' E 103°36'0 0.2
2018-Apr-17 09:53N 01°15' E 103°36'0 0.0
2018-Apr-17 09:29N 01°15' E 103°36'0 0.0
2018-Apr-17 05:14N 01°15' E 103°36'0 0.0
2018-Apr-17 04:56N 01°15' E 103°36'0 0.1
2018-Apr-17 02:19N 01°15' E 103°36'0 0.1
2018-Apr-17 01:22N 01°15' E 103°36'0 0.2
2018-Apr-17 00:58N 01°15' E 103°36'0 0.0
2018-Apr-17 00:28N 01°15' E 103°36'0 0.0
2018-Apr-16 11:37N 01°15' E 103°36'0 0.1
2018-Apr-16 11:28N 01°15' E 103°36'0 0.1
2018-Apr-16 10:58N 01°15' E 103°36'0 0.0
2018-Apr-16 09:46N 01°15' E 103°36'0 0.2
2018-Apr-16 08:51N 01°15' E 103°36'1 1.5
2018-Apr-16 08:25N 01°14' E 103°36'2 4.4
2018-Apr-16 08:01N 01°13' E 103°37'2 4.6
2018-Apr-16 07:30N 01°12' E 103°39'3 5.7
2018-Apr-16 07:00N 01°14' E 103°41'1 2.6
2018-Apr-16 06:30N 01°15' E 103°41'0 0.1
2018-Apr-16 05:56N 01°15' E 103°41'0 0.0
2018-Apr-16 05:14N 01°15' E 103°41'0 0.0
2018-Apr-16 04:56N 01°15' E 103°41'0 0.0
2018-Apr-16 04:26N 01°15' E 103°41'0 0.0
2018-Apr-16 03:56N 01°15' E 103°41'0 0.0
2018-Apr-16 03:29N 01°15' E 103°41'0 0.0
2018-Apr-16 02:50N 01°15' E 103°41'0 0.0
2018-Apr-16 02:26N 01°15' E 103°41'0 0.0
2018-Apr-16 01:56N 01°15' E 103°41'0 0.0
2018-Apr-16 01:23N 01°15' E 103°41'0 0.0
2018-Apr-16 00:47N 01°15' E 103°41'0 0.0
2018-Apr-16 00:29N 01°15' E 103°41'0 0.0
2018-Apr-15 23:53N 01°15' E 103°41'0 0.0
2018-Apr-15 23:26N 01°15' E 103°41'0 0.0
2018-Apr-15 22:56N 01°15' E 103°41'0 0.0
2018-Apr-15 22:29N 01°15' E 103°41'0 0.0
2018-Apr-15 21:59N 01°15' E 103°41'0 0.0
2018-Apr-15 21:29N 01°15' E 103°41'0 0.0
2018-Apr-15 20:59N 01°15' E 103°41'0 0.0
2018-Apr-15 20:26N 01°15' E 103°41'0 0.0
2018-Apr-15 19:59N 01°15' E 103°41'0 0.0
2018-Apr-15 19:29N 01°15' E 103°41'0 0.0
2018-Apr-15 18:32N 01°15' E 103°41'0 0.0
2018-Apr-15 18:26N 01°15' E 103°41'0 0.0
2018-Apr-15 17:56N 01°15' E 103°41'0 0.0
2018-Apr-15 17:26N 01°15' E 103°41'0 0.0
2018-Apr-15 16:56N 01°15' E 103°41'0 0.0
2018-Apr-15 16:26N 01°15' E 103°41'0 0.0
2018-Apr-15 15:56N 01°15' E 103°41'0 0.0
2018-Apr-15 15:29N 01°15' E 103°41'0 0.0
2018-Apr-15 14:56N 01°15' E 103°41'0 0.0
2018-Apr-15 14:20N 01°15' E 103°41'0 0.0
2018-Apr-15 13:41N 01°15' E 103°41'0 0.0
2018-Apr-15 13:26N 01°15' E 103°41'0 0.0
2018-Apr-15 12:59N 01°15' E 103°41'0 0.0
2018-Apr-15 12:20N 01°15' E 103°41'0 0.0
2018-Apr-15 11:50N 01°15' E 103°41'0 0.0
2018-Apr-15 11:29N 01°15' E 103°41'0 0.0
2018-Apr-15 10:50N 01°15' E 103°41'0 0.0
2018-Apr-15 10:26N 01°15' E 103°41'0 0.0
2018-Apr-15 09:56N 01°15' E 103°41'0 0.0
2018-Apr-15 09:25N 01°15' E 103°41'0 0.0
2018-Apr-15 08:58N 01°15' E 103°41'0 0.0
2018-Apr-15 08:25N 01°15' E 103°41'0 0.0
2018-Apr-15 07:49N 01°15' E 103°41'0 0.0
2018-Apr-15 07:19N 01°15' E 103°41'0 0.0
2018-Apr-15 06:55N 01°15' E 103°41'0 0.0
2018-Apr-15 06:28N 01°15' E 103°41'0 0.0
2018-Apr-15 05:55N 01°15' E 103°41'0 0.0
2018-Apr-15 05:07N 01°15' E 103°41'0 0.0
2018-Apr-15 04:55N 01°15' E 103°41'0 0.0
2018-Apr-15 04:28N 01°15' E 103°41'0 0.0
2018-Apr-15 03:49N 01°15' E 103°41'0 0.0
2018-Apr-15 03:28N 01°15' E 103°41'0 0.6
2018-Apr-15 02:59N 01°15' E 103°42'2 4.4
2018-Apr-15 02:30N 01°15' E 103°44'1 2.8
2018-Apr-15 02:00N 01°14' E 103°45'0 0.0
2018-Apr-15 01:30N 01°14' E 103°45'0 0.0
2018-Apr-15 01:00N 01°14' E 103°45'0 0.0
2018-Apr-15 00:30N 01°14' E 103°45'0 0.0
2018-Apr-14 23:54N 01°14' E 103°45'0 0.0
2018-Apr-14 23:30N 01°14' E 103°45'0 0.0
2018-Apr-14 22:54N 01°14' E 103°45'0 0.0
2018-Apr-14 22:30N 01°14' E 103°45'0 0.0
2018-Apr-14 21:57N 01°14' E 103°45'0 0.0
2018-Apr-14 21:30N 01°14' E 103°45'0 0.0
2018-Apr-14 21:00N 01°14' E 103°45'0 0.0
2018-Apr-14 20:30N 01°14' E 103°45'0 0.0
2018-Apr-14 19:54N 01°14' E 103°45'0 0.0
2018-Apr-14 19:30N 01°14' E 103°45'0 0.0
2018-Apr-14 19:00N 01°14' E 103°45'0 0.0
2018-Apr-14 18:30N 01°14' E 103°45'0 0.0
2018-Apr-14 18:00N 01°14' E 103°45'0 0.0
2018-Apr-14 17:30N 01°14' E 103°45'0 0.0
2018-Apr-14 17:00N 01°14' E 103°45'0 0.0
2018-Apr-14 16:30N 01°14' E 103°45'0 0.0
2018-Apr-14 15:54N 01°14' E 103°45'0 0.0
2018-Apr-14 15:30N 01°14' E 103°45'0 0.0
2018-Apr-14 15:00N 01°14' E 103°45'0 0.0
2018-Apr-14 14:30N 01°14' E 103°45'  
Track history (hours):
 
Tides and Currents Weather Stations Pressure Air Temp Water Temp Dewpoint Dewpoint Depression Visibility Wind Speed Wind Dir Waves Ship Positions

Ocean Stellar

Last reported at 2018-Apr-24 13:59 UTC. Time now 2018-Apr-24 14:34 UTC.
Position N 01°10' E 103°43'.

Length 189 m; draft 13.1 m.

Type: Tanker. MMSI: 563476000.

Date/timePositionNaut miles runAvg speedWind from/ knotsBaromVisibWave heightAir tempDewpointWater temp
2018-Apr-24 13:59N 01°10' E 103°43'0 0.1
2018-Apr-24 13:30N 01°10' E 103°43'0 0.0
2018-Apr-24 12:55N 01°10' E 103°43'0 0.1
2018-Apr-24 12:30N 01°10' E 103°43'0 0.0
2018-Apr-24 11:58N 01°10' E 103°43'0 0.1
2018-Apr-24 11:30N 01°10' E 103°43'0 0.1
2018-Apr-24 10:59N 01°10' E 103°43'0 0.0
2018-Apr-24 10:31N 01°10' E 103°43'0 0.0
2018-Apr-24 09:58N 01°10' E 103°43'0 0.0
2018-Apr-24 09:31N 01°10' E 103°43'0 0.1
2018-Apr-24 08:58N 01°10' E 103°43'0 0.1
2018-Apr-24 08:30N 01°10' E 103°43'0 0.1
2018-Apr-24 07:59N 01°10' E 103°43'0 0.0
2018-Apr-24 07:31N 01°10' E 103°43'0 0.0
2018-Apr-24 06:54N 01°10' E 103°43'0 0.0
2018-Apr-24 06:30N 01°10' E 103°43'0 0.1
2018-Apr-24 06:00N 01°10' E 103°43'0 0.1
2018-Apr-24 05:30N 01°10' E 103°43'0 0.0
2018-Apr-24 04:59N 01°10' E 103°43'0 0.0
2018-Apr-24 04:30N 01°10' E 103°43'0 0.0
2018-Apr-24 03:59N 01°10' E 103°43'0 0.0
2018-Apr-24 03:30N 01°10' E 103°43'0 0.0
2018-Apr-24 02:59N 01°10' E 103°43'0 0.0
2018-Apr-24 02:30N 01°10' E 103°43'0 0.0
2018-Apr-24 01:59N 01°10' E 103°43'0 0.0
2018-Apr-24 01:30N 01°10' E 103°43'0 0.0
2018-Apr-24 00:59N 01°10' E 103°43'0 0.0
2018-Apr-24 00:26N 01°10' E 103°43'0 0.0
2018-Apr-23 23:59N 01°10' E 103°43'0 0.0
2018-Apr-23 23:30N 01°10' E 103°43'0 0.0
2018-Apr-23 22:59N 01°10' E 103°43'0 0.0
2018-Apr-23 22:29N 01°10' E 103°43'0 0.1
2018-Apr-23 21:59N 01°10' E 103°43'0 0.1
2018-Apr-23 21:27N 01°10' E 103°43'0 0.1
2018-Apr-23 20:58N 01°10' E 103°43'0 0.0
2018-Apr-23 20:30N 01°10' E 103°43'0 0.2
2018-Apr-23 19:59N 01°10' E 103°43'0 0.1
2018-Apr-23 19:30N 01°10' E 103°43'0 0.1
2018-Apr-23 18:59N 01°10' E 103°43'0 0.3
2018-Apr-23 18:30N 01°10' E 103°43'0 0.2
2018-Apr-23 17:59N 01°10' E 103°43'0 0.3
2018-Apr-23 17:30N 01°10' E 103°43'0 0.3
2018-Apr-23 17:00N 01°10' E 103°43'4 7.4
2018-Apr-23 16:30N 01°11' E 103°40'4 8.2
2018-Apr-23 15:59N 01°13' E 103°36'2 3.1
2018-Apr-23 15:30N 01°13' E 103°35'2 3.0
2018-Apr-23 14:59N 01°14' E 103°34'1 2.2
2018-Apr-23 14:25N 01°15' E 103°36'0 0.1
2018-Apr-23 13:51N 01°15' E 103°35'0 0.2
2018-Apr-23 13:30N 01°15' E 103°35'0 0.1
2018-Apr-23 12:55N 01°15' E 103°35'0 0.1
2018-Apr-23 12:19N 01°15' E 103°35'0 0.1
2018-Apr-23 11:45N 01°15' E 103°35'0 0.1
2018-Apr-23 11:16N 01°15' E 103°35'0 0.1
2018-Apr-23 10:45N 01°15' E 103°35'0 0.1
2018-Apr-23 10:18N 01°15' E 103°36'0 0.0
2018-Apr-23 09:54N 01°15' E 103°36'0 0.0
2018-Apr-23 09:15N 01°15' E 103°36'0 0.0
2018-Apr-23 08:48N 01°15' E 103°36'0 0.0
2018-Apr-23 08:30N 01°15' E 103°36'0 0.0
2018-Apr-23 07:48N 01°15' E 103°36'0 0.3
2018-Apr-23 07:03N 01°15' E 103°36'0 0.2
2018-Apr-23 06:57N 01°15' E 103°36'0 0.0
2018-Apr-23 06:06N 01°15' E 103°36'0 0.0
2018-Apr-23 05:57N 01°15' E 103°36'0 0.1
2018-Apr-23 05:21N 01°15' E 103°36'0 0.1
2018-Apr-23 04:57N 01°15' E 103°36'0 0.2
2018-Apr-23 04:30N 01°15' E 103°36'0 0.0
2018-Apr-23 03:59N 01°15' E 103°36'0 0.0
2018-Apr-23 03:26N 01°15' E 103°36'0 0.0
2018-Apr-23 02:54N 01°15' E 103°36'0 0.0
2018-Apr-23 02:27N 01°15' E 103°36'0 0.0
2018-Apr-23 01:51N 01°15' E 103°36'0 0.0
2018-Apr-22 22:41N 01°15' E 103°36'0 0.0
2018-Apr-22 22:11N 01°15' E 103°36'0 0.0
2018-Apr-22 21:53N 01°15' E 103°36'0 0.1
2018-Apr-22 21:23N 01°15' E 103°36'0 0.0
2018-Apr-22 20:53N 01°15' E 103°36'0 0.1
2018-Apr-22 20:08N 01°14' E 103°36'0 1.4
2018-Apr-22 19:58N 01°14' E 103°36'2 4.2
2018-Apr-22 19:30N 01°13' E 103°37'3 5.4
2018-Apr-22 18:59N 01°12' E 103°39'3 5.9
2018-Apr-22 18:30N 01°14' E 103°42'0 0.7
2018-Apr-22 17:59N 01°15' E 103°41'0 0.0
2018-Apr-22 17:29N 01°15' E 103°41'0 0.0
2018-Apr-22 16:59N 01°14' E 103°41'0 0.0
2018-Apr-22 16:23N 01°15' E 103°41'0 0.0
2018-Apr-22 15:59N 01°15' E 103°41'0 0.0
2018-Apr-22 15:26N 01°15' E 103°41'0 0.0
2018-Apr-22 14:59N 01°15' E 103°41'0 0.0
2018-Apr-22 14:23N 01°15' E 103°41'0 0.0
2018-Apr-22 13:59N 01°15' E 103°41'0 0.0
2018-Apr-22 13:29N 01°15' E 103°41'0 0.0
2018-Apr-22 12:59N 01°15' E 103°41'0 0.0
2018-Apr-22 12:29N 01°15' E 103°41'0 0.0
2018-Apr-22 11:59N 01°15' E 103°41'0 0.0
2018-Apr-22 11:26N 01°14' E 103°41'0 0.0
2018-Apr-22 10:59N 01°15' E 103°41'0 0.0
2018-Apr-22 10:24N 01°15' E 103°41'0 0.0
2018-Apr-22 09:59N 01°15' E 103°41'0 0.0
2018-Apr-22 09:26N 01°15' E 103°41'0 0.0
2018-Apr-22 08:53N 01°15' E 103°41'0 0.0
2018-Apr-22 08:29N 01°14' E 103°41'0 0.0
2018-Apr-22 07:59N 01°15' E 103°41'0 0.0
2018-Apr-22 07:30N 01°15' E 103°41'0 0.0
2018-Apr-22 06:59N 01°15' E 103°41'0 0.0
2018-Apr-22 06:29N 01°15' E 103°41'0 0.0
2018-Apr-22 05:59N 01°15' E 103°41'0 0.0
2018-Apr-22 05:27N 01°15' E 103°41'0 0.0
2018-Apr-22 04:56N 01°15' E 103°41'0 0.0
2018-Apr-22 04:29N 01°15' E 103°41'0 0.0
2018-Apr-22 03:59N 01°15' E 103°41'0 0.0
2018-Apr-22 03:29N 01°15' E 103°41'0 0.0
2018-Apr-22 02:53N 01°15' E 103°41'0 0.0
2018-Apr-22 02:23N 01°15' E 103°41'0 0.0
2018-Apr-22 01:57N 01°15' E 103°41'0 0.0
2018-Apr-22 01:29N 01°15' E 103°41'0 0.0
2018-Apr-22 00:59N 01°15' E 103°41'0 0.0
2018-Apr-22 00:30N 01°15' E 103°41'0 0.0
2018-Apr-21 23:56N 01°15' E 103°41'0 0.0
2018-Apr-21 23:29N 01°15' E 103°41'0 0.0
2018-Apr-21 22:59N 01°15' E 103°41'0 0.0
2018-Apr-21 22:29N 01°15' E 103°41'0 0.0
2018-Apr-21 21:50N 01°15' E 103°41'0 0.0
2018-Apr-21 21:30N 01°15' E 103°41'0 0.0
2018-Apr-21 20:59N 01°15' E 103°41'0 0.0
2018-Apr-21 20:26N 01°15' E 103°41'0 0.0
2018-Apr-21 19:59N 01°15' E 103°41'0 0.0
2018-Apr-21 19:29N 01°15' E 103°41'0 0.0
2018-Apr-21 18:59N 01°15' E 103°41'0 0.3
2018-Apr-21 18:31N 01°15' E 103°42'1 1.5
2018-Apr-21 17:59N 01°15' E 103°42'2 5.0
2018-Apr-21 17:30N 01°16' E 103°44'3 5.4
2018-Apr-21 16:59N 01°14' E 103°47'1 2.4
2018-Apr-21 16:27N 01°14' E 103°48'0 0.2
2018-Apr-21 15:54N 01°14' E 103°48'0 0.1
2018-Apr-21 14:55N 01°14' E 103°48'0 0.3
2018-Apr-21 14:24N 01°14' E 103°48'0 0.2
2018-Apr-21 13:42N 01°14' E 103°48'0 0.5
2018-Apr-21 13:21N 01°14' E 103°48'0 0.3
2018-Apr-21 12:57N 01°14' E 103°48'0 0.0
2018-Apr-21 12:30N 01°14' E 103°48'0 0.0
2018-Apr-21 11:45N 01°14' E 103°48'0 0.2
2018-Apr-21 11:21N 01°14' E 103°48'0 0.0
2018-Apr-21 10:51N 01°14' E 103°48'0 0.1
2018-Apr-21 10:30N 01°14' E 103°48'0 0.1
2018-Apr-21 09:51N 01°14' E 103°48'0 0.0
2018-Apr-21 09:30N 01°14' E 103°48'0 0.1
2018-Apr-21 08:51N 01°14' E 103°48'0 0.1
2018-Apr-21 08:15N 01°14' E 103°48'0 0.0
2018-Apr-21 07:57N 01°14' E 103°48'0 0.0
2018-Apr-21 07:27N 01°14' E 103°48'0 0.0
2018-Apr-21 06:30N 01°14' E 103°48'0 0.0
2018-Apr-21 05:58N 01°14' E 103°48'0 0.1
2018-Apr-21 05:27N 01°14' E 103°48'0 0.0
2018-Apr-21 04:57N 01°14' E 103°48'0 0.0
2018-Apr-21 04:30N 01°14' E 103°48'0 0.2
2018-Apr-21 03:57N 01°13' E 103°48'0 0.1
2018-Apr-21 03:30N 01°13' E 103°48'0 0.1
2018-Apr-21 02:57N 01°14' E 103°48'0 0.0
2018-Apr-21 02:30N 01°14' E 103°48'0 0.0
2018-Apr-21 01:57N 01°14' E 103°48'0 0.0
2018-Apr-21 01:27N 01°14' E 103°48'0 0.0
2018-Apr-21 01:00N 01°14' E 103°48'0 0.1
2018-Apr-21 00:27N 01°13' E 103°48'0 0.0
2018-Apr-20 23:33N 01°14' E 103°48'0 0.1
2018-Apr-20 23:27N 01°14' E 103°48'0 0.0
2018-Apr-20 22:57N 01°14' E 103°48'0 0.0
2018-Apr-20 22:24N 01°14' E 103°48'0 0.0
2018-Apr-20 21:54N 01°14' E 103°48'0 0.0
2018-Apr-20 21:27N 01°14' E 103°48'0 0.1
2018-Apr-20 21:00N 01°13' E 103°48'0 0.2
2018-Apr-20 20:21N 01°14' E 103°48'0 0.2
2018-Apr-20 19:57N 01°14' E 103°48'0 0.1
2018-Apr-20 19:15N 01°14' E 103°48'0 0.2
2018-Apr-20 18:56N 01°14' E 103°48'0 0.1
2018-Apr-20 18:29N 01°14' E 103°48'0 0.1
2018-Apr-20 17:59N 01°14' E 103°48'0 0.1
2018-Apr-20 17:26N 01°14' E 103°48'0 0.1
2018-Apr-20 16:59N 01°14' E 103°48'0 0.0
2018-Apr-20 16:26N 01°14' E 103°48'0 0.2
2018-Apr-20 15:59N 01°14' E 103°48'0 0.1
2018-Apr-20 15:23N 01°14' E 103°48'0 0.1
2018-Apr-20 14:47N 01°14' E 103°48'0 0.1
2018-Apr-20 14:29N 01°14' E 103°48'0 0.0
2018-Apr-20 13:53N 01°14' E 103°48'0 0.0
2018-Apr-20 13:29N 01°14' E 103°48'0 0.1
2018-Apr-20 12:56N 01°14' E 103°48'0 0.1
2018-Apr-20 12:26N 01°14' E 103°48'0 0.0
2018-Apr-20 11:59N 01°14' E 103°48'0 0.0
2018-Apr-20 11:26N 01°14' E 103°48'0 0.1
2018-Apr-20 10:59N 01°14' E 103°48'0 0.0
2018-Apr-20 10:29N 01°14' E 103°48'0 0.1
2018-Apr-20 09:53N 01°14' E 103°48'0 0.0
2018-Apr-20 09:23N 01°14' E 103°48'0 0.1
2018-Apr-20 08:47N 01°14' E 103°48'0 0.0
2018-Apr-20 08:23N 01°14' E 103°48'0 0.1
2018-Apr-20 07:53N 01°14' E 103°48'0 0.1
2018-Apr-20 07:23N 01°14' E 103°48'0 0.0
2018-Apr-20 06:56N 01°14' E 103°48'0 0.0
2018-Apr-20 06:14N 01°14' E 103°48'0 0.0
2018-Apr-20 05:56N 01°14' E 103°48'0 0.1
2018-Apr-20 05:11N 01°14' E 103°48'0 0.1
2018-Apr-20 04:59N 01°14' E 103°48'0 0.0
2018-Apr-20 04:26N 01°14' E 103°48'0 0.0
2018-Apr-20 03:59N 01°14' E 103°48'0 0.0
2018-Apr-20 03:29N 01°14' E 103°48'0 0.2
2018-Apr-20 02:44N 01°13' E 103°48'0 0.2
2018-Apr-20 02:26N 01°13' E 103°48'0 0.0
2018-Apr-20 01:32N 01°13' E 103°48'0 0.2
2018-Apr-20 01:26N 01°13' E 103°48'0 0.2
2018-Apr-20 00:59N 01°14' E 103°48'0 0.0
2018-Apr-20 00:29N 01°14' E 103°48'0 0.1
2018-Apr-19 23:56N 01°14' E 103°48'0 0.1
2018-Apr-19 23:26N 01°14' E 103°48'0 0.0
2018-Apr-19 21:44N 01°14' E 103°48'0 0.0
2018-Apr-19 21:20N 01°14' E 103°48'0 0.0
2018-Apr-19 20:59N 01°14' E 103°48'0 0.0
2018-Apr-19 20:29N 01°14' E 103°48'0 0.1
2018-Apr-19 19:59N 01°13' E 103°48'0 0.1
2018-Apr-19 19:26N 01°14' E 103°48'0 0.2
2018-Apr-19 18:59N 01°14' E 103°48'0 0.0
2018-Apr-19 18:26N 01°14' E 103°48'0 0.1
2018-Apr-19 17:23N 01°14' E 103°48'0 0.0
2018-Apr-19 16:59N 01°14' E 103°48'0 0.1
2018-Apr-19 16:29N 01°14' E 103°48'0 0.3
2018-Apr-19 15:56N 01°14' E 103°48'0 0.1
2018-Apr-19 15:29N 01°14' E 103°48'0 0.1
2018-Apr-19 14:56N 01°14' E 103°48'0 0.1
2018-Apr-19 14:23N 01°14' E 103°48'0 0.2
2018-Apr-19 13:59N 01°14' E 103°48'0 0.0
2018-Apr-19 13:17N 01°14' E 103°48'0 0.0
2018-Apr-19 12:44N 01°14' E 103°48'0 0.1
2018-Apr-19 12:29N 01°14' E 103°48'0 0.1
2018-Apr-19 11:53N 01°14' E 103°48'0 0.0
2018-Apr-19 11:26N 01°14' E 103°48'0 0.0
2018-Apr-19 10:56N 01°14' E 103°48'0 0.1
2018-Apr-19 10:29N 01°14' E 103°48'0 0.1
2018-Apr-19 09:29N 01°14' E 103°48'0 0.1
2018-Apr-19 08:58N 01°14' E 103°48'0 0.1
2018-Apr-19 08:25N 01°14' E 103°48'0 0.1
2018-Apr-19 07:55N 01°14' E 103°48'0 0.3
2018-Apr-19 07:20N 01°13' E 103°48'0 0.3
2018-Apr-19 06:52N 01°14' E 103°48'0 0.0
2018-Apr-19 06:19N 01°14' E 103°48'0 0.0
2018-Apr-19 05:58N 01°14' E 103°48'0 0.0
2018-Apr-19 05:25N 01°14' E 103°48'0 0.0
2018-Apr-19 04:58N 01°14' E 103°48'0 0.0
2018-Apr-19 04:28N 01°14' E 103°48'0 0.1
2018-Apr-19 03:58N 01°14' E 103°48'0 0.1
2018-Apr-19 03:13N 01°14' E 103°48'0 0.0
2018-Apr-19 02:59N 01°14' E 103°48'0 0.0
2018-Apr-19 02:28N 01°14' E 103°48'0 0.2
2018-Apr-19 01:40N 01°13' E 103°48'0 0.1
2018-Apr-19 01:22N 01°13' E 103°48'0 0.2
2018-Apr-19 00:58N 01°14' E 103°48'0 0.0
2018-Apr-19 00:25N 01°14' E 103°48'0 0.0
2018-Apr-18 23:58N 01°14' E 103°48'0 0.0
2018-Apr-18 23:28N 01°14' E 103°48'0 0.0
2018-Apr-18 22:16N 01°14' E 103°48'0 0.0
2018-Apr-18 21:58N 01°14' E 103°48'0 0.0
2018-Apr-18 21:16N 01°14' E 103°48'0 0.0
2018-Apr-18 20:58N 01°14' E 103°48'0 0.0
2018-Apr-18 20:22N 01°14' E 103°48'0 0.0
2018-Apr-18 19:58N 01°14' E 103°48'0 0.0
2018-Apr-18 19:28N 01°14' E 103°48'0 0.1
2018-Apr-18 18:52N 01°14' E 103°48'0 0.1
2018-Apr-18 18:25N 01°14' E 103°48'0 0.1
2018-Apr-18 17:40N 01°14' E 103°48'0 0.1
2018-Apr-18 17:07N 01°14' E 103°48'0 0.0
2018-Apr-18 16:59N 01°14' E 103°48'0 0.1
2018-Apr-18 16:28N 01°14' E 103°48'0 0.0
2018-Apr-18 15:58N 01°14' E 103°48'0 0.1
2018-Apr-18 15:22N 01°14' E 103°48'0 0.0
2018-Apr-18 14:58N 01°14' E 103°48'0 0.1
2018-Apr-18 14:28N 01°14' E 103°48'0 0.0
2018-Apr-18 13:58N 01°14' E 103°48'0 0.1
2018-Apr-18 13:22N 01°14' E 103°48'0 0.1
2018-Apr-18 12:55N 01°14' E 103°48'0 0.1
2018-Apr-18 12:26N 01°14' E 103°48'0 0.1
2018-Apr-18 11:37N 01°14' E 103°48'0 0.1
2018-Apr-18 11:28N 01°14' E 103°48'0 0.0
2018-Apr-18 10:49N 01°14' E 103°48'0 0.0
2018-Apr-18 10:28N 01°14' E 103°48'0 0.0
2018-Apr-18 09:56N 01°14' E 103°48'0 0.0
2018-Apr-18 09:28N 01°14' E 103°48'0 0.0
2018-Apr-18 08:58N 01°14' E 103°48'0 0.1
2018-Apr-18 08:28N 01°14' E 103°48'0 0.1
2018-Apr-18 07:58N 01°14' E 103°48'0 0.1
2018-Apr-18 07:10N 01°14' E 103°48'0 0.0
2018-Apr-18 06:46N 01°14' E 103°48'0 0.2
2018-Apr-18 06:19N 01°14' E 103°48'0 0.1
2018-Apr-18 05:58N 01°14' E 103°48'0 0.2
2018-Apr-18 05:25N 01°14' E 103°48'0 0.3
2018-Apr-18 04:58N 01°14' E 103°48'0 0.0
2018-Apr-18 04:28N 01°14' E 103°48'0 0.0
2018-Apr-18 03:58N 01°14' E 103°48'0 0.1
2018-Apr-18 03:19N 01°14' E 103°48'0 0.1
2018-Apr-18 02:46N 01°14' E 103°48'0 0.1
2018-Apr-18 02:17N 01°14' E 103°48'0 1.3
2018-Apr-18 02:00N 01°14' E 103°47'2 4.7
2018-Apr-18 01:31N 01°15' E 103°45'4 8.1
2018-Apr-18 01:00N 01°13' E 103°42'4 8.6
2018-Apr-18 00:30N 01°12' E 103°37'3 5.5
2018-Apr-17 23:59N 01°13' E 103°35'2 4.8
2018-Apr-17 23:31N 01°15' E 103°35'1 0.2
2018-Apr-17 19:50N 01°15' E 103°36'0 0.0
2018-Apr-17 19:05N 01°15' E 103°36'0 0.0
2018-Apr-17 18:59N 01°15' E 103°36'0 0.0
2018-Apr-17 18:29N 01°15' E 103°36'0 0.0
2018-Apr-17 17:59N 01°15' E 103°36'0 0.0
2018-Apr-17 17:23N 01°15' E 103°36'0 0.0
2018-Apr-17 15:32N 01°15' E 103°36'0 0.0
2018-Apr-17 15:20N 01°15' E 103°36'0 0.1
2018-Apr-17 12:56N 01°15' E 103°36'0 0.0
2018-Apr-17 12:23N 01°15' E 103°36'0 0.1
2018-Apr-17 10:32N 01°15' E 103°36'0 0.0
2018-Apr-17 10:14N 01°15' E 103°36'0 0.2
2018-Apr-17 09:53N 01°15' E 103°36'0 0.0
2018-Apr-17 09:29N 01°15' E 103°36'0 0.0
2018-Apr-17 05:14N 01°15' E 103°36'0 0.0
2018-Apr-17 04:56N 01°15' E 103°36'0 0.1
2018-Apr-17 02:19N 01°15' E 103°36'0 0.1
2018-Apr-17 01:22N 01°15' E 103°36'0 0.2
2018-Apr-17 00:58N 01°15' E 103°36'0 0.0
2018-Apr-17 00:28N 01°15' E 103°36'0 0.0
2018-Apr-16 11:37N 01°15' E 103°36'0 0.1
2018-Apr-16 11:28N 01°15' E 103°36'0 0.1
2018-Apr-16 10:58N 01°15' E 103°36'0 0.0
2018-Apr-16 09:46N 01°15' E 103°36'0 0.2
2018-Apr-16 08:51N 01°15' E 103°36'1 1.5
2018-Apr-16 08:25N 01°14' E 103°36'2 4.4
2018-Apr-16 08:01N 01°13' E 103°37'2 4.6
2018-Apr-16 07:30N 01°12' E 103°39'3 5.7
2018-Apr-16 07:00N 01°14' E 103°41'1 2.6
2018-Apr-16 06:30N 01°15' E 103°41'0 0.1
2018-Apr-16 05:56N 01°15' E 103°41'0 0.0
2018-Apr-16 05:14N 01°15' E 103°41'0 0.0
2018-Apr-16 04:56N 01°15' E 103°41'0 0.0
2018-Apr-16 04:26N 01°15' E 103°41'0 0.0
2018-Apr-16 03:56N 01°15' E 103°41'0 0.0
2018-Apr-16 03:29N 01°15' E 103°41'0 0.0
2018-Apr-16 02:50N 01°15' E 103°41'0 0.0
2018-Apr-16 02:26N 01°15' E 103°41'0 0.0
2018-Apr-16 01:56N 01°15' E 103°41'0 0.0
2018-Apr-16 01:23N 01°15' E 103°41'0 0.0
2018-Apr-16 00:47N 01°15' E 103°41'0 0.0
2018-Apr-16 00:29N 01°15' E 103°41'0 0.0
2018-Apr-15 23:53N 01°15' E 103°41'0 0.0
2018-Apr-15 23:26N 01°15' E 103°41'0 0.0
2018-Apr-15 22:56N 01°15' E 103°41'0 0.0
2018-Apr-15 22:29N 01°15' E 103°41'0 0.0
2018-Apr-15 21:59N 01°15' E 103°41'0 0.0
2018-Apr-15 21:29N 01°15' E 103°41'0 0.0
2018-Apr-15 20:59N 01°15' E 103°41'0 0.0
2018-Apr-15 20:26N 01°15' E 103°41'0 0.0
2018-Apr-15 19:59N 01°15' E 103°41'0 0.0
2018-Apr-15 19:29N 01°15' E 103°41'0 0.0
2018-Apr-15 18:32N 01°15' E 103°41'0 0.0
2018-Apr-15 18:26N 01°15' E 103°41'0 0.0
2018-Apr-15 17:56N 01°15' E 103°41'0 0.0
2018-Apr-15 17:26N 01°15' E 103°41'0 0.0
2018-Apr-15 16:56N 01°15' E 103°41'0 0.0
2018-Apr-15 16:26N 01°15' E 103°41'0 0.0
2018-Apr-15 15:56N 01°15' E 103°41'0 0.0
2018-Apr-15 15:29N 01°15' E 103°41'0 0.0
2018-Apr-15 14:56N 01°15' E 103°41'0 0.0
2018-Apr-15 14:20N 01°15' E 103°41'0 0.0
2018-Apr-15 13:41N 01°15' E 103°41'0 0.0
2018-Apr-15 13:26N 01°15' E 103°41'0 0.0
2018-Apr-15 12:59N 01°15' E 103°41'0 0.0
2018-Apr-15 12:20N 01°15' E 103°41'0 0.0
2018-Apr-15 11:50N 01°15' E 103°41'0 0.0
2018-Apr-15 11:29N 01°15' E 103°41'0 0.0
2018-Apr-15 10:50N 01°15' E 103°41'0 0.0
2018-Apr-15 10:26N 01°15' E 103°41'0 0.0
2018-Apr-15 09:56N 01°15' E 103°41'0 0.0
2018-Apr-15 09:25N 01°15' E 103°41'0 0.0
2018-Apr-15 08:58N 01°15' E 103°41'0 0.0
2018-Apr-15 08:25N 01°15' E 103°41'0 0.0
2018-Apr-15 07:49N 01°15' E 103°41'0 0.0
2018-Apr-15 07:19N 01°15' E 103°41'0 0.0
2018-Apr-15 06:55N 01°15' E 103°41'0 0.0
2018-Apr-15 06:28N 01°15' E 103°41'0 0.0
2018-Apr-15 05:55N 01°15' E 103°41'0 0.0
2018-Apr-15 05:07N 01°15' E 103°41'0 0.0
2018-Apr-15 04:55N 01°15' E 103°41'0 0.0
2018-Apr-15 04:28N 01°15' E 103°41'0 0.0
2018-Apr-15 03:49N 01°15' E 103°41'0 0.0
2018-Apr-15 03:28N 01°15' E 103°41'0 0.6
2018-Apr-15 02:59N 01°15' E 103°42'2 4.4
2018-Apr-15 02:30N 01°15' E 103°44'1 2.8
2018-Apr-15 02:00N 01°14' E 103°45'0 0.0
2018-Apr-15 01:30N 01°14' E 103°45'0 0.0
2018-Apr-15 01:00N 01°14' E 103°45'0 0.0
2018-Apr-15 00:30N 01°14' E 103°45'0 0.0
2018-Apr-14 23:54N 01°14' E 103°45'0 0.0
2018-Apr-14 23:30N 01°14' E 103°45'0 0.0
2018-Apr-14 22:54N 01°14' E 103°45'0 0.0
2018-Apr-14 22:30N 01°14' E 103°45'0 0.0
2018-Apr-14 21:57N 01°14' E 103°45'0 0.0
2018-Apr-14 21:30N 01°14' E 103°45'0 0.0
2018-Apr-14 21:00N 01°14' E 103°45'0 0.0
2018-Apr-14 20:30N 01°14' E 103°45'0 0.0
2018-Apr-14 19:54N 01°14' E 103°45'0 0.0
2018-Apr-14 19:30N 01°14' E 103°45'0 0.0
2018-Apr-14 19:00N 01°14' E 103°45'0 0.0
2018-Apr-14 18:30N 01°14' E 103°45'0 0.0
2018-Apr-14 18:00N 01°14' E 103°45'0 0.0
2018-Apr-14 17:30N 01°14' E 103°45'0 0.0
2018-Apr-14 17:00N 01°14' E 103°45'0 0.0
2018-Apr-14 16:30N 01°14' E 103°45'0 0.0
2018-Apr-14 15:54N 01°14' E 103°45'0 0.0
2018-Apr-14 15:30N 01°14' E 103°45'0 0.0
2018-Apr-14 15:00N 01°14' E 103°45'0 0.0
2018-Apr-14 14:30N 01°14' E 103°45'  

Dump ship's entire track history